createdAt,value
2023-03-11T00:00:47.515Z,74.78
2023-03-11T00:03:27.064Z,74.75
2023-03-11T00:05:53.971Z,74.92
2023-03-11T00:08:22.628Z,74.87
2023-03-11T00:10:54.760Z,74.81
2023-03-11T00:13:22.139Z,74.90
2023-03-11T00:15:50.491Z,74.91
2023-03-11T00:18:17.412Z,74.78
2023-03-11T00:20:45.682Z,74.74
2023-03-11T00:23:14.107Z,74.95
2023-03-11T00:25:43.234Z,74.89
2023-03-11T00:28:10.599Z,74.98
2023-03-11T00:30:38.639Z,74.81
2023-03-11T00:33:05.309Z,74.78
2023-03-11T00:35:32.252Z,74.85
2023-03-11T00:38:01.567Z,74.62
2023-03-11T00:40:30.907Z,74.33
2023-03-11T00:42:58.047Z,74.43
2023-03-11T00:45:28.175Z,74.77
2023-03-11T00:47:55.774Z,74.14
2023-03-11T00:50:27.817Z,74.15
2023-03-11T00:52:54.694Z,73.99
2023-03-11T00:55:23.915Z,73.96
2023-03-11T00:57:55.882Z,73.95
2023-03-11T01:00:23.731Z,73.74
2023-03-11T01:02:51.398Z,73.69
2023-03-11T01:05:20.732Z,73.68
2023-03-11T01:07:47.517Z,73.71
2023-03-11T01:10:14.692Z,73.76
2023-03-11T01:12:41.487Z,73.95
2023-03-11T01:15:09.157Z,74.16
2023-03-11T01:17:35.687Z,74.27
2023-03-11T01:20:05.581Z,74.52
2023-03-11T01:22:32.345Z,74.77
2023-03-11T01:24:58.814Z,74.81
2023-03-11T01:27:28.207Z,74.92
2023-03-11T01:29:54.671Z,74.97
2023-03-11T01:32:21.347Z,75.02
2023-03-11T01:34:47.868Z,74.96
2023-03-11T01:37:14.260Z,74.97
2023-03-11T01:39:40.790Z,74.93
2023-03-11T01:42:07.145Z,74.72
2023-03-11T01:44:33.608Z,74.26
2023-03-11T01:47:01.656Z,74.43
2023-03-11T01:49:28.029Z,74.54
2023-03-11T01:51:57.783Z,74.47
2023-03-11T01:54:27.826Z,74.34
2023-03-11T01:56:54.697Z,74.91
2023-03-11T01:59:23.925Z,74.93
2023-03-11T02:02:29.414Z,74.93
2023-03-11T02:04:56.497Z,74.64
2023-03-11T02:07:22.862Z,74.52
2023-03-11T02:09:49.258Z,74.63
2023-03-11T02:12:15.863Z,74.42
2023-03-11T02:14:50.410Z,74.50
2023-03-11T02:17:17.117Z,74.36
2023-03-11T02:19:55.151Z,74.12
2023-03-11T02:22:22.206Z,73.58
2023-03-11T02:25:06.695Z,74.20
2023-03-11T02:27:34.099Z,73.98
2023-03-11T02:30:00.964Z,73.96
2023-03-11T02:32:27.662Z,73.89
2023-03-11T02:34:54.056Z,73.77
2023-03-11T02:37:20.475Z,74.03
2023-03-11T02:39:53.969Z,74.05
2023-03-11T02:42:25.278Z,74.15
2023-03-11T02:44:58.800Z,73.97
2023-03-11T02:47:26.010Z,74.18
2023-03-11T02:49:54.472Z,74.66
2023-03-11T02:52:21.780Z,74.53
2023-03-11T02:54:48.088Z,74.04
2023-03-11T02:57:14.603Z,74.28
2023-03-11T02:59:41.009Z,74.07
2023-03-11T03:02:07.569Z,74.03
2023-03-11T03:04:34.164Z,74.16
2023-03-11T03:07:00.602Z,73.01
2023-03-11T03:09:27.074Z,71.95
2023-03-11T03:11:53.539Z,71.64
2023-03-11T03:14:20.090Z,71.04
2023-03-11T03:16:46.575Z,69.69
2023-03-11T03:19:13.039Z,69.18
2023-03-11T03:21:40.445Z,68.72
2023-03-11T03:24:07.095Z,68.65
2023-03-11T03:26:33.448Z,69.20
2023-03-11T03:28:59.811Z,69.06
2023-03-11T03:31:26.334Z,68.98
2023-03-11T03:33:52.961Z,69.26
2023-03-11T03:36:19.424Z,69.23
2023-03-11T03:38:45.896Z,69.31
2023-03-11T03:41:15.482Z,69.39
2023-03-11T03:43:41.940Z,69.10
2023-03-11T03:46:08.441Z,69.46
2023-03-11T03:48:35.244Z,68.97
2023-03-11T03:51:06.731Z,68.62
2023-03-11T03:53:34.425Z,68.73
2023-03-11T03:56:05.663Z,68.85
2023-03-11T03:58:32.245Z,68.84
2023-03-11T04:00:59.696Z,68.61
2023-03-11T04:03:27.054Z,68.52
2023-03-11T04:05:53.701Z,68.42
2023-03-11T04:08:20.727Z,67.62
2023-03-11T04:10:56.539Z,68.19
2023-03-11T04:13:23.363Z,67.64
2023-03-11T04:15:49.823Z,67.94
2023-03-11T04:18:16.477Z,68.06
2023-03-11T04:20:43.191Z,68.56
2023-03-11T04:23:09.802Z,68.53
2023-03-11T04:25:36.109Z,68.55
2023-03-11T04:28:02.478Z,68.51
2023-03-11T04:30:28.902Z,68.58
2023-03-11T04:32:55.316Z,68.86
2023-03-11T04:35:21.979Z,69.00
2023-03-11T04:37:48.568Z,69.24
2023-03-11T04:40:15.210Z,69.44
2023-03-11T04:42:41.884Z,69.62
2023-03-11T04:45:10.492Z,69.73
2023-03-11T04:47:36.975Z,69.85
2023-03-11T04:50:04.078Z,70.08
2023-03-11T04:52:30.610Z,70.16
2023-03-11T04:54:56.950Z,70.12
2023-03-11T04:57:26.299Z,70.15
2023-03-11T04:59:52.630Z,70.25
2023-03-11T05:02:19.087Z,70.38
2023-03-11T05:04:45.927Z,70.29
2023-03-11T05:07:12.425Z,69.87
2023-03-11T05:09:38.924Z,70.43
2023-03-11T05:12:05.889Z,70.28
2023-03-11T05:14:32.299Z,70.30
2023-03-11T05:16:58.743Z,70.39
2023-03-11T05:19:31.676Z,70.55
2023-03-11T05:21:58.195Z,70.66
2023-03-11T05:24:27.487Z,70.80
2023-03-11T05:26:54.644Z,71.14
2023-03-11T05:29:21.555Z,71.28
2023-03-11T05:31:48.243Z,71.48
2023-03-11T05:34:15.671Z,71.41
2023-03-11T05:36:42.571Z,71.48
2023-03-11T05:39:08.900Z,71.59
2023-03-11T05:41:35.846Z,71.64
2023-03-11T05:44:02.322Z,71.79
2023-03-11T05:46:29.170Z,71.99
2023-03-11T05:48:55.800Z,72.09
2023-03-11T05:51:22.304Z,72.39
2023-03-11T05:53:48.873Z,72.49
2023-03-11T05:56:15.670Z,72.51
2023-03-11T05:58:42.164Z,72.66
2023-03-11T06:01:10.348Z,72.86
2023-03-11T06:03:38.150Z,72.94
2023-03-11T06:06:07.031Z,73.01
2023-03-11T06:08:36.406Z,72.95
2023-03-11T06:11:08.133Z,73.15
2023-03-11T06:13:36.107Z,73.38
2023-03-11T06:16:03.552Z,73.38
2023-03-11T06:18:30.130Z,73.51
2023-03-11T06:21:01.339Z,73.55
2023-03-11T06:23:29.146Z,73.79
2023-03-11T06:26:00.157Z,73.89
2023-03-11T06:28:27.823Z,73.97
2023-03-11T06:30:56.092Z,74.14
2023-03-11T06:33:23.459Z,74.38
2023-03-11T06:36:00.753Z,74.33
2023-03-11T06:38:27.665Z,74.47
2023-03-11T06:40:54.108Z,74.30
2023-03-11T06:43:21.582Z,74.46
2023-03-11T06:45:48.212Z,74.36
2023-03-11T06:48:14.736Z,74.54
2023-03-11T06:50:41.197Z,74.60
2023-03-11T06:53:07.883Z,74.62
2023-03-11T06:55:35.161Z,74.63
2023-03-11T06:58:01.824Z,74.63
2023-03-11T07:00:30.444Z,74.71
2023-03-11T07:02:57.353Z,74.62
2023-03-11T07:05:24.003Z,74.55
2023-03-11T07:07:53.481Z,74.84
2023-03-11T07:10:20.269Z,74.93
2023-03-11T07:12:46.860Z,74.88
2023-03-11T07:15:13.491Z,75.04
2023-03-11T07:17:41.716Z,75.12
2023-03-11T07:20:09.034Z,75.26
2023-03-11T07:22:35.345Z,75.43
2023-03-11T07:25:01.676Z,75.58
2023-03-11T07:27:28.462Z,75.62
2023-03-11T07:29:55.261Z,75.66
2023-03-11T07:32:21.644Z,75.64
2023-03-11T07:34:48.520Z,75.80
2023-03-11T07:37:15.424Z,76.15
2023-03-11T07:39:42.145Z,76.13
2023-03-11T07:42:08.623Z,75.88
2023-03-11T07:44:35.403Z,75.96
2023-03-11T07:47:03.661Z,75.85
2023-03-11T07:49:30.308Z,76.11
2023-03-11T07:51:56.800Z,76.02
2023-03-11T07:54:23.605Z,76.02
2023-03-11T07:56:50.101Z,76.07
2023-03-11T07:59:16.628Z,76.24
2023-03-11T08:01:46.472Z,76.16
2023-03-11T08:04:16.294Z,76.41
2023-03-11T08:06:44.852Z,76.40
2023-03-11T08:09:11.646Z,76.44
2023-03-11T08:11:38.408Z,76.13
2023-03-11T08:14:05.634Z,76.54
2023-03-11T08:16:32.358Z,76.25
2023-03-11T08:18:59.877Z,76.40
2023-03-11T08:21:29.464Z,76.33
2023-03-11T08:24:00.140Z,76.47
2023-03-11T08:26:27.255Z,76.43
2023-03-11T08:28:54.441Z,76.14
2023-03-11T08:31:25.987Z,76.41
2023-03-11T08:33:55.497Z,76.12
2023-03-11T08:36:22.352Z,76.23
2023-03-11T08:38:49.171Z,76.17
2023-03-11T08:41:15.821Z,76.16
2023-03-11T08:43:43.859Z,76.35
2023-03-11T08:46:17.696Z,76.20
2023-03-11T08:48:44.093Z,76.33
2023-03-11T08:51:12.354Z,76.25
2023-03-11T08:53:39.333Z,76.28
2023-03-11T08:56:05.985Z,76.31
2023-03-11T08:58:32.419Z,76.19
2023-03-11T09:00:58.964Z,75.95
2023-03-11T09:03:25.525Z,76.04
2023-03-11T09:05:59.100Z,75.81
2023-03-11T09:08:26.087Z,75.97
2023-03-11T09:10:52.516Z,75.98
2023-03-11T09:13:19.182Z,75.99
2023-03-11T09:15:45.756Z,76.19
2023-03-11T09:18:13.372Z,76.21
2023-03-11T09:20:40.875Z,76.26
2023-03-11T09:23:08.507Z,76.15
2023-03-11T09:25:35.082Z,76.04
2023-03-11T09:28:01.931Z,76.00
2023-03-11T09:30:28.415Z,76.14
2023-03-11T09:32:55.574Z,75.75
2023-03-11T09:35:22.030Z,75.69
2023-03-11T09:37:48.813Z,75.58
2023-03-11T09:40:20.693Z,75.41
2023-03-11T09:43:03.261Z,75.55
2023-03-11T09:45:31.754Z,75.54
2023-03-11T09:48:26.490Z,75.78
2023-03-11T09:50:58.237Z,75.96
2023-03-11T09:53:33.829Z,76.08
2023-03-11T09:56:04.307Z,76.32
2023-03-11T09:58:41.656Z,76.59
2023-03-11T10:01:16.281Z,76.70
2023-03-11T10:03:43.359Z,76.49
2023-03-11T10:06:17.087Z,76.39
2023-03-11T10:08:48.868Z,76.50
2023-03-11T10:11:30.609Z,76.25
2023-03-11T10:14:06.882Z,76.10
2023-03-11T10:16:55.377Z,76.07
2023-03-11T10:19:37.036Z,76.03
2023-03-11T10:22:23.954Z,75.97
2023-03-11T10:25:25.239Z,76.02
2023-03-11T10:27:55.377Z,76.23
2023-03-11T10:30:25.997Z,76.18
2023-03-11T10:33:19.896Z,75.91
2023-03-11T10:35:51.809Z,75.70
2023-03-11T10:38:21.705Z,74.99
2023-03-11T10:40:51.499Z,74.67
2023-03-11T10:43:23.000Z,74.68
2023-03-11T10:45:50.590Z,74.51
2023-03-11T10:48:18.891Z,74.54
2023-03-11T10:51:02.967Z,74.48
2023-03-11T10:53:30.695Z,74.51
2023-03-11T10:55:58.663Z,74.51
2023-03-11T10:58:30.382Z,74.81
2023-03-11T11:01:01.261Z,74.62
2023-03-11T11:03:28.337Z,74.67
2023-03-11T11:06:01.396Z,74.59
2023-03-11T11:08:28.580Z,74.26
2023-03-11T11:10:57.439Z,73.15
2023-03-11T11:13:30.526Z,73.22
2023-03-11T11:16:00.993Z,73.28
2023-03-11T11:18:44.191Z,73.26
2023-03-11T11:21:14.861Z,72.90
2023-03-11T11:23:41.605Z,73.11
2023-03-11T11:26:20.509Z,73.45
2023-03-11T11:29:14.856Z,73.75
2023-03-11T11:31:44.171Z,73.54
2023-03-11T11:34:29.575Z,73.77
2023-03-11T11:36:56.732Z,73.83
2023-03-11T11:39:26.390Z,73.43
2023-03-11T11:41:55.905Z,73.15
2023-03-11T11:44:29.883Z,73.08
2023-03-11T11:46:59.282Z,72.89
2023-03-11T11:49:28.817Z,72.86
2023-03-11T11:52:14.291Z,73.04
2023-03-11T11:54:46.566Z,73.15
2023-03-11T11:57:15.677Z,73.12
2023-03-11T11:59:43.078Z,72.53
2023-03-11T12:02:15.787Z,72.13
2023-03-11T12:05:05.888Z,71.52
2023-03-11T12:07:47.411Z,71.88
2023-03-11T12:10:36.735Z,71.45
2023-03-11T12:13:43.542Z,71.19
2023-03-11T12:16:19.072Z,71.44
2023-03-11T12:19:16.637Z,71.21
2023-03-11T12:21:43.284Z,71.48
2023-03-11T12:24:12.805Z,70.96
2023-03-11T12:26:41.755Z,70.56
2023-03-11T12:29:19.839Z,70.16
2023-03-11T12:31:47.080Z,70.32
2023-03-11T12:34:17.353Z,69.39
2023-03-11T12:36:45.169Z,69.37
2023-03-11T12:39:23.210Z,68.52
2023-03-11T12:42:15.917Z,68.96
2023-03-11T12:44:42.884Z,69.11
2023-03-11T12:47:17.510Z,69.48
2023-03-11T12:49:46.069Z,69.47
2023-03-11T12:52:15.581Z,69.89
2023-03-11T12:55:02.673Z,71.68
2023-03-11T12:57:50.672Z,72.55
2023-03-11T13:00:29.790Z,72.37
2023-03-11T13:03:08.980Z,72.03
2023-03-11T13:05:48.504Z,71.97
2023-03-11T13:08:23.823Z,71.02
2023-03-11T13:10:52.019Z,70.91
2023-03-11T13:13:30.721Z,70.92
2023-03-11T13:15:58.378Z,70.59
2023-03-11T13:18:29.790Z,70.57
2023-03-11T13:21:00.728Z,70.25
2023-03-11T13:23:36.350Z,70.10
2023-03-11T13:26:09.131Z,70.29
2023-03-11T13:28:51.475Z,69.86
2023-03-11T13:31:37.676Z,69.71
2023-03-11T13:34:55.037Z,69.63
2023-03-11T13:37:30.829Z,70.02
2023-03-11T13:40:13.627Z,69.98
2023-03-11T13:42:50.532Z,70.29
2023-03-11T13:45:33.794Z,70.51
2023-03-11T13:48:26.518Z,70.56
2023-03-11T13:51:30.748Z,68.97
2023-03-11T13:54:02.044Z,68.92
2023-03-11T13:56:31.256Z,68.97
2023-03-11T13:59:17.651Z,68.54
2023-03-11T14:01:51.695Z,68.10
2023-03-11T14:04:27.044Z,67.83
2023-03-11T14:06:53.779Z,67.75
2023-03-11T14:09:23.088Z,67.75
2023-03-11T14:11:51.810Z,67.80
2023-03-11T14:14:40.456Z,68.06
2023-03-11T14:17:13.161Z,67.76
2023-03-11T14:19:39.723Z,67.54
2023-03-11T14:22:08.023Z,67.13
2023-03-11T14:24:35.360Z,67.37
2023-03-11T14:27:05.963Z,67.29
2023-03-11T14:29:34.099Z,67.05
2023-03-11T14:32:27.174Z,67.00
2023-03-11T14:34:54.714Z,67.14
2023-03-11T14:37:39.454Z,67.02
2023-03-11T14:40:38.491Z,67.06
2023-03-11T14:43:06.996Z,67.03
2023-03-11T14:45:36.874Z,67.02
2023-03-11T14:48:14.697Z,67.14
2023-03-11T14:50:43.713Z,67.36
2023-03-11T14:53:23.589Z,67.26
2023-03-11T14:55:55.236Z,67.18
2023-03-11T14:58:30.786Z,67.07
2023-03-11T15:01:03.389Z,67.31
2023-03-11T15:03:33.712Z,66.90
2023-03-11T15:06:07.108Z,66.94
2023-03-11T15:08:38.037Z,66.99
2023-03-11T15:11:19.075Z,66.24
2023-03-11T15:13:50.353Z,66.50
2023-03-11T15:16:34.740Z,66.40
2023-03-11T15:19:22.010Z,66.46
2023-03-11T15:21:53.628Z,65.98
2023-03-11T15:24:27.783Z,65.99
2023-03-11T15:26:57.688Z,66.36
2023-03-11T15:29:25.142Z,66.21
2023-03-11T15:31:51.552Z,66.04
2023-03-11T15:34:18.066Z,66.23
2023-03-11T15:36:44.543Z,65.97
2023-03-11T15:39:11.016Z,65.62
2023-03-11T15:41:37.683Z,65.58
2023-03-11T15:44:06.857Z,64.92
2023-03-11T15:46:34.071Z,64.68
2023-03-11T15:49:00.561Z,65.01
2023-03-11T15:51:27.053Z,65.04
2023-03-11T15:53:53.844Z,64.85
2023-03-11T15:56:23.943Z,64.49
2023-03-11T15:58:50.459Z,64.66
2023-03-11T16:01:17.850Z,64.71
2023-03-11T16:03:44.290Z,64.69
2023-03-11T16:06:10.708Z,64.31
2023-03-11T16:08:37.082Z,64.30
2023-03-11T16:11:03.728Z,64.00
2023-03-11T16:13:30.154Z,64.41
2023-03-11T16:15:56.748Z,64.33
2023-03-11T16:18:23.657Z,64.13
2023-03-11T16:20:51.877Z,64.11
2023-03-11T16:23:26.066Z,64.05
2023-03-11T16:25:58.758Z,64.09
2023-03-11T16:28:25.354Z,63.81
2023-03-11T16:30:52.208Z,64.05
2023-03-11T16:33:18.781Z,64.45
2023-03-11T16:35:45.824Z,64.01
2023-03-11T16:38:12.721Z,64.10
2023-03-11T16:40:39.722Z,64.14
2023-03-11T16:43:07.207Z,64.16
2023-03-11T16:45:33.828Z,64.21
2023-03-11T16:48:00.660Z,64.32
2023-03-11T16:50:27.416Z,63.91
2023-03-11T16:52:55.098Z,63.74
2023-03-11T16:55:22.421Z,63.67
2023-03-11T16:57:48.989Z,63.63
2023-03-11T17:00:18.972Z,63.43
2023-03-11T17:02:45.951Z,63.52
2023-03-11T17:05:12.460Z,63.69
2023-03-11T17:07:39.918Z,63.42
2023-03-11T17:10:09.825Z,63.34
2023-03-11T17:12:36.480Z,63.59
2023-03-11T17:15:05.725Z,63.46
2023-03-11T17:17:32.358Z,63.47
2023-03-11T17:19:58.808Z,63.42
2023-03-11T17:22:25.662Z,63.30
2023-03-11T17:24:52.176Z,63.37
2023-03-11T17:27:18.812Z,63.43
2023-03-11T17:29:45.298Z,63.24
2023-03-11T17:32:17.107Z,63.14
2023-03-11T17:34:44.255Z,63.17
2023-03-11T17:37:10.803Z,63.20
2023-03-11T17:39:37.338Z,63.42
2023-03-11T17:42:04.158Z,63.25
2023-03-11T17:44:44.551Z,63.38
2023-03-11T17:47:19.014Z,63.48
2023-03-11T17:49:45.670Z,63.77
2023-03-11T17:52:12.405Z,63.86
2023-03-11T17:54:39.067Z,64.41
2023-03-11T17:57:05.685Z,64.71
2023-03-11T17:59:32.265Z,64.92
2023-03-11T18:01:58.750Z,65.20
2023-03-11T18:04:25.656Z,65.58
2023-03-11T18:06:53.759Z,66.03
2023-03-11T18:09:20.703Z,66.75
2023-03-11T18:11:47.228Z,67.46
2023-03-11T18:14:13.784Z,68.14
2023-03-11T18:16:40.567Z,68.20
2023-03-11T18:19:07.217Z,67.87
2023-03-11T18:21:33.652Z,67.88
2023-03-11T18:24:00.637Z,67.77
2023-03-11T18:26:30.346Z,68.00
2023-03-11T18:28:58.533Z,67.73
2023-03-11T18:31:26.253Z,67.71
2023-03-11T18:37:58.969Z,67.97
2023-03-11T18:41:45.302Z,68.09
2023-03-11T18:45:01.264Z,68.38
2023-03-11T18:47:28.521Z,68.44
2023-03-11T18:50:19.740Z,68.49
2023-03-11T18:52:46.981Z,68.65
2023-03-11T18:55:13.620Z,68.76
2023-03-11T18:57:42.407Z,68.76
2023-03-11T19:00:09.606Z,68.88
2023-03-11T19:02:36.278Z,68.80
2023-03-11T19:05:03.656Z,68.85
2023-03-11T19:07:30.123Z,68.80
2023-03-11T19:09:56.704Z,68.96
2023-03-11T19:12:23.217Z,68.89
2023-03-11T19:14:50.108Z,68.97
2023-03-11T19:17:17.706Z,69.18
2023-03-11T19:19:44.557Z,69.15
2023-03-11T19:22:11.204Z,69.20
2023-03-11T19:24:37.796Z,69.23
2023-03-11T19:27:04.343Z,69.30
2023-03-11T19:29:37.008Z,69.29
2023-03-11T19:32:04.299Z,69.38
2023-03-11T19:37:32.248Z,69.31
2023-03-11T19:40:04.733Z,69.28
2023-03-11T19:42:35.602Z,69.33
2023-03-11T19:45:29.798Z,69.52
2023-03-11T19:47:56.636Z,69.41
2023-03-11T19:50:23.280Z,69.37
2023-03-11T19:52:49.964Z,69.35
2023-03-11T19:55:16.503Z,69.00
2023-03-11T19:57:43.302Z,69.04
2023-03-11T20:00:11.948Z,68.89
2023-03-11T20:02:39.955Z,68.79
2023-03-11T20:05:07.817Z,68.65
2023-03-11T20:07:34.415Z,68.71
2023-03-11T20:10:00.851Z,68.79
2023-03-11T20:12:27.545Z,68.70
2023-03-11T20:14:54.026Z,68.56
2023-03-11T20:17:20.596Z,68.65
2023-03-11T20:19:47.280Z,68.70
2023-03-11T20:22:13.873Z,68.57
2023-03-11T20:24:40.722Z,68.57
2023-03-11T20:27:07.395Z,68.61
2023-03-11T20:29:34.013Z,68.72
2023-03-11T20:32:00.595Z,68.72
2023-03-11T20:34:27.354Z,68.81
2023-03-11T20:36:54.034Z,68.70
2023-03-11T20:39:20.822Z,68.68
2023-03-11T20:41:47.648Z,68.63
2023-03-11T20:44:14.434Z,68.64
2023-03-11T20:46:41.804Z,68.71
2023-03-11T20:49:08.438Z,68.72
2023-03-11T20:51:41.022Z,68.65
2023-03-11T20:54:08.148Z,68.60
2023-03-11T20:56:34.854Z,68.79
2023-03-11T20:59:01.501Z,68.57
2023-03-11T21:01:30.030Z,68.49
2023-03-11T21:04:00.027Z,68.45
2023-03-11T21:06:29.871Z,68.50
2023-03-11T21:08:58.449Z,68.69
2023-03-11T21:11:26.198Z,68.65
2023-03-11T21:13:54.013Z,68.55
2023-03-11T21:16:21.449Z,68.62
2023-03-11T21:18:49.575Z,68.66
2023-03-11T21:21:17.740Z,68.57
2023-03-11T21:23:44.700Z,68.65
2023-03-11T21:26:13.357Z,68.82
2023-03-11T21:28:41.463Z,68.81
2023-03-11T21:31:10.559Z,68.83
2023-03-11T21:33:38.620Z,68.93
2023-03-11T21:36:06.744Z,69.02
2023-03-11T22:16:06.299Z,69.41
2023-03-11T22:18:33.032Z,69.41
2023-03-11T22:21:00.234Z,69.59
2023-03-11T22:23:27.361Z,69.71
2023-03-11T22:25:53.947Z,69.71
2023-03-11T22:28:20.668Z,69.80
2023-03-11T22:30:47.389Z,69.90
2023-03-11T22:50:12.004Z,70.04
2023-03-11T22:52:38.436Z,69.90
2023-03-11T22:55:05.393Z,69.93
2023-03-11T22:57:38.012Z,70.11
2023-03-11T23:00:18.681Z,70.07
2023-03-11T23:02:46.744Z,70.17
2023-03-11T23:05:14.508Z,70.19
2023-03-11T23:07:41.508Z,70.44
2023-03-11T23:10:08.501Z,70.31
2023-03-11T23:12:36.172Z,70.45
2023-03-11T23:15:10.245Z,70.44
2023-03-11T23:17:36.757Z,70.66
2023-03-11T23:20:05.141Z,70.70
2023-03-11T23:22:35.346Z,70.73
2023-03-11T23:25:03.353Z,70.74
2023-03-11T23:27:29.660Z,70.67
2023-03-11T23:29:56.262Z,70.59
2023-03-11T23:32:23.078Z,70.54
2023-03-11T23:34:49.471Z,70.73
2023-03-11T23:37:16.192Z,70.68
2023-03-11T23:39:42.705Z,70.71
2023-03-11T23:44:41.254Z,70.74
2023-03-11T23:47:07.902Z,70.66
2023-03-11T23:49:34.298Z,70.78
2023-03-11T23:52:00.940Z,70.92
2023-03-11T23:54:27.484Z,70.80
2023-03-11T23:56:53.880Z,71.00
2023-03-11T23:59:20.423Z,70.91
